BES weather

Brest Bretagne Airport
Brest/Guipavas, Brittany, France

Public forecast

Using degrees Celsius for public forecast. Weather courtesy of forecast.io.

Current aviation weather report (METAR) for Brest Bretagne Airport

Retrieved 2020/04/10 00:30 UTC (0 seconds ago):

LFRB 100030Z AUTO 02006KT 8000 NSC 11/09 Q1021 NOSIG

Aviation forecast (TAF) for Brest Bretagne Airport

Retrieved 2020-04-10 00:21 UTC (3 minutes ago):

TAF LFRB 092300Z 1000/1106 10003KT CAVOK PROB30 TEMPO 1013/1016 20010KT